Thunder radar more information blitzortung!


Radar de pluja more information rain snow radar


Visita la nostra xarxa de llocs de meteo:

Template documentation
and downloads

And another site



No particular awareness of the weather is required.    There are no Weather-warnings

Pagina Historial Weather Underground text

Diari Resum Octubre 15, 2017 Unitats:  Imperial    Mètric   Tant
« Previous Dia
SegĂźent Dia »
Diari Setmana Mensual Anual Personalitzada
  Maxima: Minima: Media:
Temperatura: TemperatureC °F 14.6 °F 19.3 °F
Punt de rosada: DewpointC °F 13.0 °F 14.7 °F
Humitat: Humidity % 52 % 76 %
Wind Speed: WindSpeedKMH mph 0.0 mph 3.3 mph
RĂ fegues de vent: WindSpeedGustKMH mph - -
Vent:- - SSE
Pression baro: PressurehPa in 1026.0 in -
Precipitacions: 0.0 in    
Historical Graphs
 
 
Dades de taula per Octubre 15, 2017
Temps Temperatura Punt de rosada Pression baro Vent Wind Speed RĂ fegues de vent Humitat Rainfall Rate (Hourly)
TemperatureC °F DewpointC °F PressurehPa in Calm     Humidity % HourlyPrecipMM in
00:00 17.7 °F 14.6 °F 1028.0 in Calm     82 % 0.0 in
00:05 17.6 °F 14.7 °F 1028.0 in Calm     83 % 0.0 in
00:10 17.5 °F 14.6 °F 1028.0 in Calm     83 % 0.0 in
00:15 17.6 °F 14.7 °F 1028.0 in Calm     83 % 0.0 in
00:20 17.5 °F 14.6 °F 1028.0 in Calm     83 % 0.0 in
00:25 17.4 °F 14.5 °F 1028.0 in Calm     83 % 0.0 in
00:30 17.4 °F 14.7 °F 1028.0 in Calm     84 % 0.0 in
00:31 17.4 °F 14.7 °F 1028.0 in Calm     84 % 0.0 in
00:36 17.4 °F 14.7 °F 1028.0 in Calm     84 % 0.0 in
00:41 17.3 °F 14.6 °F 1028.0 in Calm     84 % 0.0 in
00:46 17.3 °F 14.6 °F 1028.0 in Calm     84 % 0.0 in
00:51 17.2 °F 14.4 °F 1028.0 in Calm     84 % 0.0 in
00:56 17.2 °F 14.7 °F 1028.0 in Calm     85 % 0.0 in
01:01 17.2 °F 14.7 °F 1028.0 in Calm     85 % 0.0 in
01:06 17.1 °F 14.6 °F 1028.0 in Calm     85 % 0.0 in
01:11 17.1 °F 14.6 °F 1028.0 in Calm     85 % 0.0 in
01:12 17.0 °F 14.4 °F 1028.0 in Calm     85 % 0.0 in
01:17 17.0 °F 14.4 °F 1028.0 in Calm     85 % 0.0 in
01:22 16.9 °F 14.3 °F 1028.0 in Calm     85 % 0.0 in
01:27 16.7 °F 14.2 °F 1028.0 in North 2.3 mph 2.3 mph 85 % 0.0 in
01:32 16.7 °F 14.2 °F 1028.0 in WNW 3.7 mph 3.7 mph 85 % 0.0 in
01:37 16.8 °F 14.4 °F 1028.0 in WNW 1.9 mph   86 % 0.0 in
01:42 16.7 °F 14.3 °F 1028.0 in WNW 1.9 mph 1.9 mph 86 % 0.0 in
01:47 16.7 °F 14.3 °F 1028.0 in WNW 1.9 mph 1.9 mph 86 % 0.0 in
01:52 16.7 °F 14.3 °F 1028.0 in WNW 1.9 mph 1.9 mph 86 % 0.0 in
01:57 16.7 °F 14.5 °F 1027.0 in Calm     87 % 0.0 in
02:02 16.6 °F 14.4 °F 1027.0 in Calm     87 % 0.0 in
02:07 16.6 °F 14.4 °F 1027.0 in Calm     87 % 0.0 in
02:12 16.5 °F 14.3 °F 1028.0 in Calm     87 % 0.0 in
02:17 16.5 °F 14.3 °F 1028.0 in Calm     87 % 0.0 in
02:22 16.4 °F 14.2 °F 1028.0 in North 2.3 mph 2.3 mph 87 % 0.0 in
02:27 16.3 °F 14.1 °F 1028.0 in NNE 3.7 mph 3.7 mph 87 % 0.0 in
02:32 16.3 °F 14.1 °F 1028.0 in Calm     87 % 0.0 in
02:37 16.3 °F 14.3 °F 1028.0 in Calm     88 % 0.0 in
02:42 16.2 °F 14.2 °F 1028.0 in Calm     88 % 0.0 in
02:47 16.2 °F 14.2 °F 1028.0 in Calm     88 % 0.0 in
02:52 15.9 °F 13.7 °F 1028.0 in Calm     87 % 0.0 in
02:57 15.8 °F 13.7 °F 1028.0 in Calm     87 % 0.0 in
03:02 15.7 °F 13.7 °F 1028.0 in Calm     88 % 0.0 in
03:07 15.7 °F 13.7 °F 1028.0 in Calm     88 % 0.0 in
03:12 15.6 °F 13.6 °F 1028.0 in Calm     88 % 0.0 in
03:17 15.6 °F 13.6 °F 1028.0 in Calm     88 % 0.0 in
03:22 15.5 °F 13.5 °F 1028.0 in Calm     88 % 0.0 in
03:27 15.5 °F 13.5 °F 1028.0 in Calm     88 % 0.0 in
03:32 15.4 °F 13.4 °F 1028.0 in Calm     88 % 0.0 in
03:37 15.4 °F 13.4 °F 1028.0 in Calm     88 % 0.0 in
03:42 15.4 °F 13.6 °F 1028.0 in Calm     89 % 0.0 in
03:47 15.4 °F 13.6 °F 1028.0 in Calm     89 % 0.0 in
03:52 15.4 °F 13.6 °F 1028.0 in Calm     89 % 0.0 in
03:57 15.4 °F 13.6 °F 1028.0 in Calm     89 % 0.0 in
04:02 15.5 °F 13.7 °F 1028.0 in Calm     89 % 0.0 in
04:07 15.5 °F 13.7 °F 1028.0 in Calm     89 % 0.0 in
04:12 15.5 °F 13.7 °F 1028.0 in ENE 1.9 mph 1.9 mph 89 % 0.0 in
04:17 15.5 °F 13.7 °F 1028.0 in NNE 3.7 mph 3.7 mph 89 % 0.0 in
04:22 15.6 °F 13.8 °F 1028.0 in ENE 1.9 mph 1.9 mph 89 % 0.0 in
04:27 15.6 °F 13.6 °F 1027.0 in ENE 3.7 mph 3.7 mph 88 % 0.0 in
04:32 15.6 °F 13.6 °F 1027.0 in North 1.9 mph 1.9 mph 88 % 0.0 in
04:37 15.7 °F 13.7 °F 1027.0 in NNE 3.7 mph 3.7 mph 88 % 0.0 in
04:42 15.7 °F 13.7 °F 1028.0 in NNE 5.6 mph 5.6 mph 88 % 0.0 in
04:47 15.7 °F 13.7 °F 1028.0 in Calm     88 % 0.0 in
04:52 15.6 °F 13.6 °F 1028.0 in Calm     88 % 0.0 in
04:57 15.6 °F 13.6 °F 1027.0 in NNW 1.9 mph 1.9 mph 88 % 0.0 in
05:02 15.6 °F 13.6 °F 1027.0 in Calm     88 % 0.0 in
05:07 15.6 °F 13.6 °F 1027.0 in Calm     88 % 0.0 in
05:12 15.5 °F 13.5 °F 1027.0 in West 1.9 mph 1.9 mph 88 % 0.0 in
05:17 15.5 °F 13.5 °F 1027.0 in West 1.9 mph 1.9 mph 88 % 0.0 in
05:22 15.5 °F 13.5 °F 1027.0 in Calm     88 % 0.0 in
05:27 15.5 °F 13.5 °F 1028.0 in Calm     88 % 0.0 in
05:32 15.5 °F 13.5 °F 1028.0 in Calm     88 % 0.0 in
05:37 15.5 °F 13.5 °F 1028.0 in Calm     88 % 0.0 in
05:42 15.5 °F 13.5 °F 1028.0 in SW 3.7 mph 3.7 mph 88 % 0.0 in
05:47 15.5 °F 13.5 °F 1028.0 in Calm     88 % 0.0 in
05:52 15.4 °F 13.6 °F 1028.0 in Calm     89 % 0.0 in
05:57 15.4 °F 13.4 °F 1028.0 in Calm     88 % 0.0 in
06:02 15.3 °F 13.5 °F 1028.0 in Calm     89 % 0.0 in
06:07 15.3 °F 13.5 °F 1028.0 in Calm     89 % 0.0 in
06:12 15.3 °F 13.5 °F 1028.0 in Calm     89 % 0.0 in
06:17 15.3 °F 13.5 °F 1028.0 in Calm     89 % 0.0 in
06:22 15.3 °F 13.5 °F 1028.0 in Calm     89 % 0.0 in
06:27 15.3 °F 13.5 °F 1028.0 in Calm     89 % 0.0 in
06:32 15.3 °F 13.5 °F 1028.0 in Calm     89 % 0.0 in
06:37 15.3 °F 13.5 °F 1028.0 in SSE 2.3 mph   89 % 0.0 in
06:42 15.0 °F 13.2 °F 1028.0 in South 1.9 mph   89 % 0.0 in
06:47 15.0 °F 13.2 °F 1028.0 in Calm     89 % 0.0 in
06:52 14.9 °F 13.1 °F 1028.0 in South 1.9 mph 1.9 mph 89 % 0.0 in
06:57 15.0 °F 13.2 °F 1028.0 in Calm     89 % 0.0 in
07:02 15.0 °F 13.2 °F 1028.0 in Calm     89 % 0.0 in
07:03 15.0 °F 13.2 °F 1028.0 in Calm     89 % 0.0 in
07:08 14.9 °F 13.1 °F 1028.0 in South 2.3 mph 2.3 mph 89 % 0.0 in
07:13 15.0 °F 13.2 °F 1028.0 in South 3.7 mph 3.7 mph 89 % 0.0 in
07:18 14.9 °F 13.1 °F 1028.0 in SSW 3.7 mph 3.7 mph 89 % 0.0 in
07:23 14.9 °F 13.1 °F 1028.0 in SW 3.7 mph 3.7 mph 89 % 0.0 in
07:28 15.0 °F 13.4 °F 1028.0 in WSW 3.7 mph   90 % 0.0 in
07:33 15.0 °F 13.4 °F 1028.0 in Calm     90 % 0.0 in
07:38 15.0 °F 13.4 °F 1028.0 in WSW 1.9 mph   90 % 0.0 in
07:40 15.0 °F 13.4 °F 1028.0 in WSW 1.9 mph   90 % 0.0 in
07:45 15.0 °F 13.4 °F 1028.0 in Calm     90 % 0.0 in
07:50 14.9 °F 13.4 °F 1028.0 in Calm     91 % 0.0 in
07:55 14.8 °F 13.2 °F 1028.0 in Calm     90 % 0.0 in
08:00 14.7 °F 13.1 °F 1027.0 in Calm     90 % 0.0 in
08:05 14.7 °F 13.1 °F 1027.0 in Calm     90 % 0.0 in
08:10 14.7 °F 13.1 °F 1027.0 in Calm     90 % 0.0 in
08:15 14.6 °F 13.0 °F 1028.0 in Calm     90 % 0.0 in
08:20 14.6 °F 13.2 °F 1028.0 in Calm     91 % 0.0 in
08:25 14.6 °F 13.2 °F 1028.0 in Calm     91 % 0.0 in
08:30 14.7 °F 13.2 °F 1028.0 in Calm     91 % 0.0 in
08:35 14.9 °F 13.4 °F 1028.0 in Calm     91 % 0.0 in
08:40 15.1 °F 13.8 °F 1028.0 in Calm     92 % 0.0 in
08:45 15.2 °F 13.7 °F 1028.0 in NNE 3.7 mph 3.7 mph 91 % 0.0 in
08:50 15.4 °F 13.9 °F 1028.0 in NW 4.2 mph 4.2 mph 91 % 0.0 in
08:55 15.8 °F 14.3 °F 1028.0 in NNW 1.9 mph 1.9 mph 91 % 0.0 in
09:00 16.1 °F 14.4 °F 1027.0 in NNW 3.7 mph 3.7 mph 90 % 0.0 in
09:05 16.1 °F 14.4 °F 1027.0 in South 3.7 mph 3.7 mph 90 % 0.0 in
09:10 16.1 °F 14.4 °F 1027.0 in Calm     90 % 0.0 in
09:15 16.3 °F 14.5 °F 1028.0 in NE 3.7 mph   89 % 0.0 in
09:20 16.4 °F 14.6 °F 1028.0 in North 4.2 mph 4.2 mph 89 % 0.0 in
09:25 16.4 °F 14.4 °F 1028.0 in ENE 5.0 mph 5.0 mph 88 % 0.0 in
09:30 16.4 °F 14.4 °F 1028.0 in WSW 1.9 mph   88 % 0.0 in
09:35 16.7 °F 14.7 °F 1028.0 in West 1.9 mph 1.9 mph 88 % 0.0 in
09:40 17.0 °F 14.8 °F 1028.0 in WNW 1.9 mph 1.9 mph 87 % 0.0 in
09:45 17.6 °F 15.4 °F 1029.0 in NW 3.7 mph 3.7 mph 87 % 0.0 in
09:50 18.0 °F 15.4 °F 1029.0 in NW 3.9 mph 3.9 mph 85 % 0.0 in
09:55 18.4 °F 15.7 °F 1029.0 in NNE 5.6 mph 5.6 mph 84 % 0.0 in
10:00 18.7 °F 15.8 °F 1028.0 in ENE 1.9 mph 1.9 mph 83 % 0.0 in
10:05 19.0 °F 15.8 °F 1028.0 in NE 4.2 mph 4.2 mph 82 % 0.0 in
10:10 19.1 °F 15.8 °F 1028.0 in NNE 7.4 mph 7.4 mph 81 % 0.0 in
10:15 19.0 °F 15.4 °F 1029.0 in NNE 5.6 mph 5.6 mph 80 % 0.0 in
10:20 19.1 °F 15.6 °F 1029.0 in ENE 11.1 mph 11.1 mph 80 % 0.0 in
10:25 19.3 °F 15.6 °F 1029.0 in NE 6.9 mph 6.9 mph 79 % 0.0 in
10:30 19.5 °F 15.8 °F 1029.0 in ENE 7.4 mph 7.4 mph 79 % 0.0 in
10:33 19.6 °F 15.7 °F 1029.0 in NE 9.3 mph 9.3 mph 78 % 0.0 in
10:38 19.6 °F 15.7 °F 1029.0 in NE 5.6 mph 5.6 mph 78 % 0.0 in
10:43 19.9 °F 15.7 °F 1028.0 in NE 6.1 mph 6.1 mph 77 % 0.0 in
10:48 20.0 °F 15.7 °F 1028.0 in ENE 7.4 mph 7.4 mph 76 % 0.0 in
10:53 20.4 °F 16.2 °F 1028.0 in ENE 7.4 mph 7.4 mph 77 % 0.0 in
10:58 20.5 °F 16.1 °F 1029.0 in NE 7.4 mph 7.4 mph 76 % 0.0 in
11:03 20.4 °F 15.8 °F 1029.0 in ENE 5.8 mph 5.8 mph 75 % 0.0 in
11:08 19.9 °F 15.6 °F 1029.0 in NE 5.6 mph 5.6 mph 76 % 0.0 in
11:13 20.0 °F 15.7 °F 1029.0 in ENE 5.6 mph 5.6 mph 76 % 0.0 in
11:18 19.9 °F 15.6 °F 1029.0 in NNE 3.9 mph 3.9 mph 76 % 0.0 in
11:23 19.9 °F 15.6 °F 1029.0 in NE 3.7 mph 3.7 mph 76 % 0.0 in
11:28 20.0 °F 15.4 °F 1029.0 in NNE 3.7 mph 3.7 mph 75 % 0.0 in
11:33 19.8 °F 15.4 °F 1029.0 in NNE 5.6 mph 5.6 mph 76 % 0.0 in
11:38 19.8 °F 15.4 °F 1029.0 in ENE 3.7 mph 3.7 mph 76 % 0.0 in
11:43 19.8 °F 15.4 °F 1029.0 in ENE 3.9 mph 3.9 mph 76 % 0.0 in
11:48 19.8 °F 15.4 °F 1029.0 in NE 3.7 mph 3.7 mph 76 % 0.0 in
11:53 19.8 °F 15.4 °F 1029.0 in NNE 3.7 mph 3.7 mph 76 % 0.0 in
11:58 19.9 °F 15.6 °F 1029.0 in NE 3.7 mph 3.7 mph 76 % 0.0 in
12:03 20.0 °F 15.4 °F 1029.0 in NNE 1.9 mph 1.9 mph 75 % 0.0 in
12:08 20.0 °F 15.4 °F 1029.0 in North 3.7 mph 3.7 mph 75 % 0.0 in
12:13 19.9 °F 15.3 °F 1028.0 in NE 3.7 mph 3.7 mph 75 % 0.0 in
12:18 20.0 °F 15.4 °F 1028.0 in NNE 1.9 mph 1.9 mph 75 % 0.0 in
12:23 20.0 °F 15.2 °F 1028.0 in Calm     74 % 0.0 in
12:28 20.0 °F 15.2 °F 1028.0 in NE 1.9 mph 1.9 mph 74 % 0.0 in
12:33 20.0 °F 15.2 °F 1028.0 in NE 4.2 mph 4.2 mph 74 % 0.0 in
12:38 19.9 °F 15.3 °F 1028.0 in ENE 5.6 mph 5.6 mph 75 % 0.0 in
12:43 20.0 °F 15.2 °F 1028.0 in ENE 3.7 mph 3.7 mph 74 % 0.0 in
12:48 20.7 °F 15.9 °F 1028.0 in East 3.7 mph 3.7 mph 74 % 0.0 in
12:53 21.1 °F 16.1 °F 1028.0 in NNE 3.7 mph 3.7 mph 73 % 0.0 in
12:58 21.6 °F 16.6 °F 1028.0 in ENE 3.7 mph 3.7 mph 73 % 0.0 in
13:03 22.0 °F 16.5 °F 1028.0 in NE 7.4 mph 7.4 mph 71 % 0.0 in
13:08 22.2 °F 16.7 °F 1028.0 in NW 5.6 mph 5.6 mph 71 % 0.0 in
13:13 22.5 °F 17.0 °F 1028.0 in NNE 5.6 mph 5.6 mph 71 % 0.0 in
13:18 22.4 °F 16.7 °F 1028.0 in ENE 5.6 mph 5.6 mph 70 % 0.0 in
13:23 22.5 °F 16.8 °F 1028.0 in SSE 3.7 mph 3.7 mph 70 % 0.0 in
13:28 22.8 °F 17.1 °F 1028.0 in WSW 3.9 mph 3.9 mph 70 % 0.0 in
13:33 23.1 °F 17.3 °F 1028.0 in NNW 4.2 mph 4.2 mph 70 % 0.0 in
13:38 23.7 °F 17.7 °F 1028.0 in SW 7.4 mph 7.4 mph 69 % 0.0 in
13:43 24.2 °F 17.9 °F 1028.0 in WSW 11.1 mph 11.1 mph 68 % 0.0 in
13:48 23.7 °F 16.9 °F 1028.0 in ESE 3.7 mph 3.7 mph 66 % 0.0 in
13:53 23.8 °F 17.3 °F 1028.0 in SSW 3.7 mph 3.7 mph 67 % 0.0 in
13:58 24.4 °F 17.4 °F 1028.0 in SSE 5.6 mph 5.6 mph 65 % 0.0 in
14:03 24.5 °F 17.5 °F 1028.0 in SW 5.6 mph 5.6 mph 65 % 0.0 in
14:08 24.9 °F 17.6 °F 1028.0 in West 4.7 mph 4.7 mph 64 % 0.0 in
14:13 24.7 °F 16.9 °F 1027.0 in West 4.2 mph 4.2 mph 62 % 0.0 in
14:18 24.5 °F 17.0 °F 1027.0 in SSW 7.4 mph 7.4 mph 63 % 0.0 in
14:23 24.2 °F 16.2 °F 1027.0 in SSE 7.4 mph 7.4 mph 61 % 0.0 in
14:28 24.5 °F 16.5 °F 1027.0 in SSW 9.3 mph 9.3 mph 61 % 0.0 in
14:33 25.0 °F 16.2 °F 1027.0 in SW 9.3 mph 9.3 mph 58 % 0.0 in
14:38 25.4 °F 16.6 °F 1027.0 in SW 6.4 mph 6.4 mph 58 % 0.0 in
14:39 25.5 °F 16.9 °F 1027.0 in SSW 7.4 mph 7.4 mph 59 % 0.0 in
14:44 25.0 °F 16.2 °F 1026.0 in SSW 7.4 mph 7.4 mph 58 % 0.0 in
14:49 24.9 °F 16.3 °F 1026.0 in South 5.6 mph 5.6 mph 59 % 0.0 in
14:54 25.0 °F 15.6 °F 1026.0 in ESE 3.9 mph 3.9 mph 56 % 0.0 in
14:59 24.9 °F 15.8 °F 1026.0 in SW 3.7 mph 3.7 mph 57 % 0.0 in
15:04 25.0 °F 15.3 °F 1026.0 in SE 7.4 mph 7.4 mph 55 % 0.0 in
15:09 25.5 °F 16.1 °F 1026.0 in West 5.6 mph 5.6 mph 56 % 0.0 in
15:14 25.2 °F 15.2 °F 1026.0 in ESE 9.3 mph 9.3 mph 54 % 0.0 in
15:19 25.5 °F 16.1 °F 1026.0 in North 7.4 mph 7.4 mph 56 % 0.0 in
15:24 25.4 °F 15.4 °F 1026.0 in ENE 9.3 mph 9.3 mph 54 % 0.0 in
15:29 25.0 °F 15.1 °F 1026.0 in SSE 7.4 mph 7.4 mph 54 % 0.0 in
15:30 25.1 °F 15.1 °F 1026.0 in SSE 9.3 mph 9.3 mph 54 % 0.0 in
15:35 25.5 °F 15.8 °F 1026.0 in SW 2.3 mph 2.3 mph 55 % 0.0 in
15:40 25.4 °F 15.1 °F 1026.0 in WSW 7.4 mph 7.4 mph 53 % 0.0 in
15:45 26.1 °F 16.1 °F 1026.0 in ESE 3.7 mph 3.7 mph 54 % 0.0 in
15:50 25.8 °F 15.2 °F 1026.0 in ESE 6.4 mph 6.4 mph 52 % 0.0 in
15:55 26.0 °F 15.7 °F 1026.0 in NE 7.4 mph 7.4 mph 53 % 0.0 in
16:00 25.4 °F 15.4 °F 1026.0 in SSE 9.3 mph 9.3 mph 54 % 0.0 in
16:05 25.1 °F 15.7 °F 1026.0 in ENE 6.1 mph 6.4 mph 56 % 0.0 in
16:10 25.4 °F 16.0 °F 1026.0 in WSW 9.3 mph 9.3 mph 56 % 0.0 in
16:15 26.0 °F 15.9 °F 1026.0 in ESE 7.4 mph 7.4 mph 54 % 0.0 in
16:20 26.2 °F 15.9 °F 1026.0 in East 3.7 mph 3.7 mph 53 % 0.0 in
16:25 25.8 °F 16.1 °F 1026.0 in SSW 3.7 mph 3.7 mph 55 % 0.0 in
16:30 25.7 °F 16.6 °F 1026.0 in West 8.7 mph 8.7 mph 57 % 0.0 in
16:35 26.0 °F 15.7 °F 1026.0 in SE 6.4 mph 6.4 mph 53 % 0.0 in
16:40 25.4 °F 15.1 °F 1026.0 in SW 5.8 mph 5.8 mph 53 % 0.0 in
16:45 25.7 °F 15.7 °F 1026.0 in WSW 9.3 mph 9.3 mph 54 % 0.0 in
16:50 25.8 °F 15.5 °F 1026.0 in ESE 3.9 mph 3.9 mph 53 % 0.0 in
16:55 25.6 °F 15.6 °F 1026.0 in West 7.4 mph 7.4 mph 54 % 0.0 in
17:00 25.9 °F 15.6 °F 1026.0 in SW 5.6 mph 5.6 mph 53 % 0.0 in
17:05 26.1 °F 15.8 °F 1026.0 in ESE 7.4 mph 7.4 mph 53 % 0.0 in
17:10 26.4 °F 16.1 °F 1026.0 in SW 3.9 mph 3.9 mph 53 % 0.0 in
17:15 26.4 °F 16.1 °F 1026.0 in SW 7.4 mph 7.4 mph 53 % 0.0 in
17:20 26.3 °F 15.9 °F 1026.0 in SSW 5.6 mph 5.6 mph 53 % 0.0 in
17:25 25.6 °F 15.0 °F 1026.0 in SSW 11.1 mph 11.1 mph 52 % 0.0 in
17:30 25.6 °F 15.0 °F 1026.0 in SW 7.4 mph 7.4 mph 52 % 0.0 in
17:35 25.3 °F 15.1 °F 1026.0 in WSW 7.4 mph 7.4 mph 53 % 0.0 in
17:40 25.1 °F 14.8 °F 1026.0 in SSW 13.0 mph 13.0 mph 53 % 0.0 in
17:45 24.9 °F 14.9 °F 1026.0 in WSW 9.3 mph 9.3 mph 54 % 0.0 in
17:46 24.9 °F 14.9 °F 1026.0 in WSW 9.3 mph 9.3 mph 54 % 0.0 in
17:51 25.0 °F 14.8 °F 1026.0 in SW 5.6 mph 5.6 mph 53 % 0.0 in
17:56 24.9 °F 14.9 °F 1026.0 in SSW 9.3 mph 9.3 mph 54 % 0.0 in
18:01 24.8 °F 14.8 °F 1026.0 in WSW 7.6 mph 7.6 mph 54 % 0.0 in
18:06 24.5 °F 14.9 °F 1026.0 in SSW 7.4 mph 7.4 mph 55 % 0.0 in
18:11 24.4 °F 14.8 °F 1026.0 in SW 13.0 mph 13.0 mph 55 % 0.0 in
18:16 24.1 °F 14.5 °F 1026.0 in SSW 13.0 mph 13.0 mph 55 % 0.0 in
18:21 23.8 °F 14.8 °F 1026.0 in SW 9.3 mph 9.3 mph 57 % 0.0 in
18:26 23.7 °F 14.7 °F 1026.0 in SSW 5.6 mph 5.6 mph 57 % 0.0 in
18:31 23.6 °F 14.6 °F 1026.0 in SSW 7.4 mph 7.4 mph 57 % 0.0 in
18:36 23.4 °F 14.7 °F 1026.0 in SW 14.8 mph 14.8 mph 58 % 0.0 in
18:41 23.1 °F 14.7 °F 1026.0 in West 5.6 mph 5.8 mph 59 % 0.0 in
18:46 22.8 °F 14.4 °F 1026.0 in WSW 13.0 mph 13.0 mph 59 % 0.0 in
18:51 22.6 °F 14.4 °F 1026.0 in SSW 9.3 mph 9.3 mph 60 % 0.0 in
18:56 22.3 °F 14.4 °F 1026.0 in SW 9.3 mph 9.3 mph 61 % 0.0 in
19:01 22.0 °F 14.4 °F 1026.0 in SW 5.6 mph 5.6 mph 62 % 0.0 in
19:06 21.9 °F 14.6 °F 1026.0 in SW 7.4 mph 7.4 mph 63 % 0.0 in
19:09 21.8 °F 14.4 °F 1026.0 in SW 5.6 mph 5.6 mph 63 % 0.0 in
19:14 21.6 °F 14.5 °F 1026.0 in SW 7.4 mph 7.4 mph 64 % 0.0 in
19:19 21.4 °F 14.3 °F 1026.0 in WSW 5.6 mph 5.6 mph 64 % 0.0 in
19:24 21.2 °F 14.3 °F 1026.0 in South 9.3 mph 9.3 mph 65 % 0.0 in
19:29 21.1 °F 14.3 °F 1026.0 in SW 7.4 mph 7.4 mph 65 % 0.0 in
19:34 20.9 °F 14.3 °F 1026.0 in SW 7.4 mph 7.4 mph 66 % 0.0 in
19:39 20.8 °F 14.2 °F 1026.0 in West 7.4 mph 7.4 mph 66 % 0.0 in
19:44 20.7 °F 14.3 °F 1026.0 in SW 9.3 mph 9.3 mph 67 % 0.0 in
19:49 20.6 °F 14.3 °F 1026.0 in SSW 11.1 mph 11.1 mph 67 % 0.0 in
19:54 20.5 °F 14.4 °F 1026.0 in SW 5.6 mph 5.6 mph 68 % 0.0 in
19:59 20.4 °F 14.5 °F 1027.0 in WSW 5.6 mph 5.6 mph 69 % 0.0 in
20:04 20.3 °F 14.4 °F 1027.0 in WSW 5.6 mph 5.6 mph 69 % 0.0 in
20:09 20.2 °F 14.6 °F 1027.0 in SW 5.6 mph 5.6 mph 70 % 0.0 in
20:14 20.1 °F 14.4 °F 1027.0 in West 3.7 mph 3.7 mph 70 % 0.0 in
20:19 20.1 °F 14.4 °F 1027.0 in SW 7.4 mph 7.4 mph 70 % 0.0 in
20:24 20.0 °F 14.6 °F 1027.0 in SW 4.2 mph 4.2 mph 71 % 0.0 in
20:29 19.9 °F 14.7 °F 1026.0 in SW 5.0 mph 5.0 mph 72 % 0.0 in
20:34 19.8 °F 14.8 °F 1026.0 in SW 3.7 mph 3.7 mph 73 % 0.0 in
20:39 19.7 °F 14.7 °F 1026.0 in WSW 3.7 mph 3.7 mph 73 % 0.0 in
20:44 19.6 °F 14.6 °F 1027.0 in WSW 3.7 mph 3.7 mph 73 % 0.0 in
20:49 19.5 °F 14.7 °F 1027.0 in SW 2.6 mph 2.6 mph 74 % 0.0 in
20:54 19.4 °F 14.7 °F 1027.0 in WSW 1.9 mph   74 % 0.0 in
20:59 19.3 °F 14.8 °F 1027.0 in Calm     75 % 0.0 in
21:04 19.3 °F 14.8 °F 1027.0 in West 3.7 mph 3.7 mph 75 % 0.0 in
21:09 19.3 °F 14.8 °F 1027.0 in West 3.7 mph   75 % 0.0 in
21:14 19.2 °F 14.7 °F 1027.0 in Calm     75 % 0.0 in
21:19 19.2 °F 14.9 °F 1027.0 in Calm     76 % 0.0 in
21:24 19.0 °F 14.7 °F 1027.0 in Calm     76 % 0.0 in
21:29 19.0 °F 14.7 °F 1027.0 in Calm     76 % 0.0 in
21:34 19.0 °F 14.9 °F 1027.0 in Calm     77 % 0.0 in
21:35 19.0 °F 14.9 °F 1027.0 in Calm     77 % 0.0 in
21:40 18.9 °F 15.0 °F 1027.0 in Calm     78 % 0.0 in
21:45 18.8 °F 14.9 °F 1027.0 in Calm     78 % 0.0 in
21:50 18.8 °F 14.9 °F 1027.0 in Calm     78 % 0.0 in
21:55 18.8 °F 14.9 °F 1027.0 in Calm     78 % 0.0 in
22:00 18.7 °F 15.0 °F 1027.0 in Calm     79 % 0.0 in
22:05 18.6 °F 14.9 °F 1027.0 in Calm     79 % 0.0 in
22:10 18.6 °F 14.9 °F 1027.0 in Calm     79 % 0.0 in
22:15 18.6 °F 14.9 °F 1027.0 in Calm     79 % 0.0 in
22:20 18.5 °F 14.8 °F 1027.0 in Calm     79 % 0.0 in
22:25 18.5 °F 14.8 °F 1027.0 in Calm     79 % 0.0 in
22:30 18.5 °F 14.8 °F 1027.0 in Calm     79 % 0.0 in
22:35 18.4 °F 14.9 °F 1027.0 in Calm     80 % 0.0 in
22:40 18.4 °F 14.7 °F 1027.0 in Calm     79 % 0.0 in
22:45 18.3 °F 14.8 °F 1027.0 in Calm     80 % 0.0 in
22:50 18.3 °F 14.8 °F 1027.0 in Calm     80 % 0.0 in
22:55 18.3 °F 14.8 °F 1027.0 in Calm     80 % 0.0 in
23:00 18.3 °F 14.8 °F 1028.0 in Calm     80 % 0.0 in
23:05 18.4 °F 15.1 °F 1028.0 in Calm     81 % 0.0 in
23:10 18.3 °F 15.0 °F 1028.0 in Calm     81 % 0.0 in
23:15 18.3 °F 15.0 °F 1027.0 in SSW 2.3 mph   81 % 0.0 in
23:20 18.3 °F 15.0 °F 1027.0 in Calm     81 % 0.0 in
23:25 18.3 °F 15.2 °F 1027.0 in Calm     82 % 0.0 in
23:30 18.2 °F 14.9 °F 1027.0 in Calm     81 % 0.0 in
23:35 18.2 °F 14.9 °F 1027.0 in Calm     81 % 0.0 in
23:40 18.1 °F 15.0 °F 1027.0 in Calm     82 % 0.0 in
23:45 18.1 °F 15.0 °F 1028.0 in Calm     82 % 0.0 in
23:50 18.1 °F 15.0 °F 1028.0 in Calm     82 % 0.0 in
23:55 18.1 °F 15.0 °F 1028.0 in Calm     82 % 0.0 in
Meteo Sesrovires
Elogis d' Weather Underground - 2 mb

Guio original per  Jim McMurry - jmcmurry@mwt.net Adaptat per a la plantilla per  Wim van der Kuil - Leuven-Template.eu

Trobareu la nostra informacio del temps tambe a:

Weather Underground

AWEKAS